Time;durP1;ratioP1;P1;durP2;ratioP2;P2;SDS_P1;SDS_P2;PMS_P1;PMS_P2;Temp;Humidity;BMP_temperature;BMP_pressure;BME280_temperature;BME280_humidity;BME280_pressure;Samples;Min_cycle;Max_cycle;Signal;HPM_P1;HPM_P2
2021/12/27 00:01:18;;;;;;;40.38;23.13;;;;;;;2.35;99.49;99738.25;6187468;23;20017;-83
2021/12/27 00:03:45;;;;;;;41.63;24.80;;;;;;;2.36;99.02;99751.03;6188980;23;20017;-81
2021/12/27 00:06:12;;;;;;;40.13;22.95;;;;;;;2.35;99.01;99743.41;6187970;23;20496;-82
2021/12/27 00:08:41;;;;;;;38.17;22.35;;;;;;;2.39;99.35;99744.78;6188395;23;20024;-84
2021/12/27 00:11:08;;;;;;;40.97;22.95;;;;;;;2.39;98.96;99739.59;6188390;23;20075;-82
2021/12/27 00:13:35;;;;;;;43.05;23.48;;;;;;;2.36;99.51;99726.97;6190117;23;20021;-82
2021/12/27 00:16:03;;;;;;;43.05;24.15;;;;;;;2.36;99.07;99730.38;6192729;23;20075;-82
2021/12/27 00:18:31;;;;;;;44.45;23.92;;;;;;;2.40;99.38;99730.91;6190723;23;20017;-83
2021/12/27 00:20:58;;;;;;;41.15;23.67;;;;;;;2.38;99.15;99725.06;6192255;23;20029;-82
2021/12/27 00:23:25;;;;;;;38.00;22.05;;;;;;;2.44;98.93;99727.13;6190915;23;20048;-83
2021/12/27 00:25:53;;;;;;;39.17;22.08;;;;;;;2.42;99.39;99726.44;6189035;23;20071;-83
2021/12/27 00:28:20;;;;;;;40.88;22.98;;;;;;;2.46;99.55;99727.84;6187288;23;20017;-82
2021/12/27 00:30:49;;;;;;;40.78;22.75;;;;;;;2.45;98.76;99727.00;6187539;23;20021;-82
2021/12/27 00:33:15;;;;;;;41.53;23.13;;;;;;;2.48;99.19;99723.38;6191148;23;20021;-82
2021/12/27 00:35:46;;;;;;;37.53;21.33;;;;;;;2.48;99.26;99718.19;6191549;23;20068;-82
2021/12/27 00:38:15;;;;;;;41.47;23.23;;;;;;;2.51;99.26;99731.69;6190139;23;20014;-83
2021/12/27 00:40:42;;;;;;;37.22;22.77;;;;;;;2.53;99.15;99732.38;6190946;23;20450;-82
2021/12/27 00:43:09;;;;;;;39.80;21.83;;;;;;;2.52;98.99;99735.91;6191280;23;20021;-82
2021/12/27 00:45:36;;;;;;;40.03;21.52;;;;;;;2.55;98.95;99729.66;6190957;23;20350;-82
2021/12/27 00:48:03;;;;;;;38.83;22.48;;;;;;;2.54;99.09;99728.03;6189617;23;20017;-83
2021/12/27 00:50:30;;;;;;;37.70;21.65;;;;;;;2.54;98.81;99717.69;6189605;23;20454;-83
2021/12/27 00:53:01;;;;;;;36.22;20.20;;;;;;;2.53;99.01;99706.53;6191131;23;20028;-82
2021/12/27 00:55:28;;;;;;;36.85;21.85;;;;;;;2.58;99.00;99716.50;6190217;23;20413;-83
2021/12/27 00:57:54;;;;;;;37.00;22.08;;;;;;;2.58;98.62;99725.06;6188632;23;20021;-80
2021/12/27 01:00:25;;;;;;;38.42;22.10;;;;;;;2.57;98.56;99709.69;6189813;23;20017;-82
2021/12/27 01:02:53;;;;;;;39.13;22.52;;;;;;;2.57;98.90;99710.50;6189905;23;20048;-81
2021/12/27 01:05:21;;;;;;;37.95;22.70;;;;;;;2.58;98.74;99716.50;6189525;23;20021;-82
2021/12/27 01:07:48;;;;;;;36.33;21.85;;;;;;;2.58;98.80;99719.09;6190080;23;20024;-81
2021/12/27 01:10:41;;;;;;;36.83;22.00;;;;;;;2.61;98.93;99718.84;6190594;23;20021;-81
2021/12/27 01:13:21;;;;;;;37.83;22.15;;;;;;;2.58;99.31;99709.56;6190557;23;20013;-82
2021/12/27 01:15:52;;;;;;;38.88;22.30;;;;;;;2.60;98.93;99712.03;6189449;23;20021;-82
2021/12/27 01:18:20;;;;;;;39.03;21.40;;;;;;;2.60;99.08;99707.69;6190428;23;20021;-82
2021/12/27 01:20:48;;;;;;;41.63;23.27;;;;;;;2.59;99.12;99702.63;6190357;23;20021;-82
2021/12/27 01:23:18;;;;;;;39.70;22.95;;;;;;;2.62;99.48;99704.97;6190561;23;20401;-81
2021/12/27 01:25:48;;;;;;;36.83;22.73;;;;;;;2.63;99.51;99704.84;6188962;23;20112;-82
2021/12/27 01:28:16;;;;;;;37.67;22.08;;;;;;;2.62;99.15;99707.56;6189338;23;20025;-83
2021/12/27 01:30:47;;;;;;;38.20;21.52;;;;;;;2.65;99.29;99699.56;6190511;23;20017;-83
2021/12/27 01:33:15;;;;;;;40.03;23.40;;;;;;;2.64;99.07;99703.06;6191538;23;20021;-82
2021/12/27 01:35:43;;;;;;;35.45;22.65;;;;;;;2.66;99.48;99703.78;6190167;23;20170;-82
2021/12/27 01:38:13;;;;;;;35.38;21.20;;;;;;;2.66;99.25;99698.59;6189617;23;20071;-82
2021/12/27 01:40:47;;;;;;;33.80;20.15;;;;;;;2.64;98.94;99697.91;6189793;23;20041;-82
2021/12/27 01:43:19;;;;;;;36.80;21.60;;;;;;;2.65;99.47;99694.38;6190353;23;20056;-82
2021/12/27 01:45:48;;;;;;;37.75;22.50;;;;;;;2.66;99.66;99702.00;6190493;23;20079;-82
2021/12/27 01:48:20;;;;;;;33.38;19.65;;;;;;;2.68;99.70;99699.28;6189758;23;20027;-82
2021/12/27 01:50:48;;;;;;;37.45;21.58;;;;;;;2.68;99.28;99699.28;6189861;23;20369;-82
2021/12/27 01:53:17;;;;;;;37.15;21.58;;;;;;;2.69;99.33;99697.53;6191342;23;20021;-82
2021/12/27 01:55:44;;;;;;;35.28;20.90;;;;;;;2.70;99.28;99692.25;6189568;23;20017;-83
2021/12/27 01:58:11;;;;;;;36.95;21.38;;;;;;;2.73;99.40;99698.91;6190970;23;20021;-82
2021/12/27 02:00:43;;;;;;;35.28;21.27;;;;;;;2.76;99.24;99699.47;6189799;23;20104;-81
2021/12/27 02:03:15;;;;;;;34.92;20.52;;;;;;;2.75;99.56;99700.41;6191096;23;20061;-81
2021/12/27 02:05:42;;;;;;;34.35;20.73;;;;;;;2.75;98.96;99695.25;6190462;23;20017;-81
2021/12/27 02:08:09;;;;;;;35.90;21.45;;;;;;;2.78;99.27;99709.69;6191569;23;20120;-82
2021/12/27 02:10:36;;;;;;;34.47;21.00;;;;;;;2.82;99.24;99695.56;6190946;23;20025;-81
2021/12/27 02:13:03;;;;;;;34.63;20.67;;;;;;;2.79;99.08;99699.22;6191283;23;20021;-82
2021/12/27 02:15:30;;;;;;;36.45;20.67;;;;;;;2.78;98.78;99699.34;6191083;23;20021;-81
2021/12/27 02:17:58;;;;;;;32.33;20.63;;;;;;;2.80;99.09;99697.47;6190693;23;20466;-81
2021/12/27 02:20:28;;;;;;;35.97;21.10;;;;;;;2.80;99.30;99695.69;6189741;23;20473;-82
2021/12/27 02:23:00;;;;;;;35.03;20.95;;;;;;;2.81;99.42;99692.16;6190765;23;20021;-82
2021/12/27 02:25:27;;;;;;;34.60;20.53;;;;;;;2.81;99.37;99691.34;6189506;23;20108;-82
2021/12/27 02:27:55;;;;;;;37.53;21.63;;;;;;;2.80;99.60;99687.13;6189262;23;20126;-81
2021/12/27 02:30:23;;;;;;;36.00;21.05;;;;;;;2.82;99.30;99682.66;6188111;23;20337;-81
2021/12/27 02:32:52;;;;;;;38.25;21.23;;;;;;;2.82;98.98;99686.03;6187785;23;20036;-80
2021/12/27 02:35:20;;;;;;;38.10;22.08;;;;;;;2.83;99.46;99687.69;6189082;23;20020;-80
2021/12/27 02:37:49;;;;;;;36.33;20.42;;;;;;;2.83;99.00;99685.09;6189823;23;20404;-81
2021/12/27 02:40:16;;;;;;;36.60;21.67;;;;;;;2.86;99.49;99682.22;6189758;23;20013;-81
2021/12/27 02:42:57;;;;;;;33.35;20.25;;;;;;;2.87;99.27;99683.88;6189722;23;20021;-79
2021/12/27 02:45:25;;;;;;;33.15;20.13;;;;;;;2.88;99.20;99684.69;6189224;23;20052;-81
2021/12/27 02:47:53;;;;;;;29.83;19.95;;;;;;;2.86;99.00;99671.06;6189784;23;20013;-81
2021/12/27 02:50:21;;;;;;;36.90;20.92;;;;;;;2.89;99.30;99676.81;6189664;23;20021;-81
2021/12/27 02:52:49;;;;;;;33.20;19.73;;;;;;;2.87;99.27;99665.78;6190525;23;20121;-81
2021/12/27 02:55:17;;;;;;;33.50;19.45;;;;;;;2.88;99.60;99670.00;6191611;23;20068;-81
2021/12/27 02:57:44;;;;;;;35.88;20.67;;;;;;;2.90;99.30;99670.69;6191910;23;20029;-81
2021/12/27 03:00:17;;;;;;;32.40;18.73;;;;;;;2.89;98.93;99668.22;6190915;23;20075;-81
2021/12/27 03:02:45;;;;;;;;;;;;;;;2.87;99.65;99663.19;6191474;23;20025;-82
2021/12/27 03:05:12;;;;;;;34.28;19.77;;;;;;;2.88;99.23;99656.25;6189421;23;19915;-82
2021/12/27 03:07:41;;;;;;;35.35;19.80;;;;;;;2.88;99.12;99664.00;6189793;23;20020;-82
2021/12/27 03:10:10;;;;;;;33.00;19.05;;;;;;;2.85;99.19;99659.09;6189907;23;20021;-82
2021/12/27 03:12:38;;;;;;;34.78;19.42;;;;;;;2.83;99.53;99654.09;6189638;23;20032;-81
2021/12/27 03:15:11;;;;;;;35.10;19.85;;;;;;;2.82;99.14;99662.78;6188387;23;20446;-81
2021/12/27 03:17:46;;;;;;;33.33;19.80;;;;;;;2.71;99.41;99637.03;6190896;23;20017;-81
2021/12/27 03:20:18;;;;;;;34.15;19.58;;;;;;;2.76;99.40;99639.25;6190010;23;20021;-81
2021/12/27 03:22:45;;;;;;;32.22;19.42;;;;;;;2.71;99.85;99631.88;6189975;23;20441;-81
2021/12/27 03:25:20;;;;;;;30.08;18.70;;;;;;;2.81;99.51;99640.50;6189265;23;20017;-81
2021/12/27 03:30:44;;;;;;;32.72;19.63;;;;;;;2.66;99.00;99624.50;6185980;23;20091;-76
2021/12/27 03:33:25;;;;;;;32.13;20.40;;;;;;;2.76;99.31;99645.22;6185735;23;20029;-78
2021/12/27 03:38:53;;;;;;;31.73;19.98;;;;;;;2.78;99.63;99645.91;6194077;23;20025;-79
2021/12/27 03:41:31;;;;;;;33.85;19.90;;;;;;;2.82;99.97;99641.31;6195222;23;20021;-78
2021/12/27 03:44:01;;;;;;;31.13;19.77;;;;;;;2.85;99.90;99646.19;6189823;23;20523;-79
2021/12/27 03:46:28;;;;;;;33.65;21.20;;;;;;;2.82;99.53;99630.97;6195195;23;20551;-79
2021/12/27 03:48:59;;;;;;;35.53;20.63;;;;;;;2.88;99.66;99639.00;6195108;23;20021;-80
2021/12/27 03:51:26;;;;;;;33.15;21.13;;;;;;;2.87;99.90;99631.38;6202781;23;20027;-80
2021/12/27 03:54:02;;;;;;;31.77;19.73;;;;;;;2.94;99.97;99633.31;6202573;23;20101;-79
2021/12/27 03:56:35;;;;;;;34.67;20.45;;;;;;;2.83;99.29;99609.34;6203228;23;20017;-79
2021/12/27 03:59:20;;;;;;;31.75;19.52;;;;;;;2.96;99.61;99633.16;6201112;23;20059;-81
2021/12/27 04:01:47;;;;;;;33.17;20.27;;;;;;;2.94;99.87;99627.31;6202139;23;20051;-81
2021/12/27 04:04:14;;;;;;;38.60;21.00;;;;;;;2.96;99.74;99626.25;6200932;23;20021;-80
2021/12/27 04:06:41;;;;;;;34.58;20.50;;;;;;;3.01;99.93;99623.25;6202661;23;20048;-80
2021/12/27 04:09:08;;;;;;;33.47;20.38;;;;;;;3.02;99.62;99626.66;6202698;23;20025;-80
2021/12/27 04:11:36;;;;;;;35.97;20.50;;;;;;;2.99;99.97;99620.00;6202789;23;20076;-80
2021/12/27 04:14:05;;;;;;;33.22;19.05;;;;;;;3.03;99.49;99625.72;6202274;23;20025;-82
2021/12/27 04:16:32;;;;;;;36.60;20.00;;;;;;;2.99;99.85;99604.47;6203216;23;20024;-81
2021/12/27 04:19:07;;;;;;;31.98;19.60;;;;;;;3.03;99.31;99613.59;6202671;23;20013;-81
2021/12/27 04:21:34;;;;;;;32.00;19.45;;;;;;;3.04;99.32;99606.66;6202566;23;20021;-80
2021/12/27 04:24:07;;;;;;;33.42;19.73;;;;;;;3.05;99.13;99600.56;6200611;23;20031;-80
2021/12/27 04:26:40;;;;;;;33.38;19.58;;;;;;;3.09;99.16;99599.34;6200657;23;20020;-79
2021/12/27 04:29:07;;;;;;;31.70;19.05;;;;;;;3.04;99.46;99602.31;6200256;23;20032;-79
2021/12/27 04:31:43;;;;;;;34.10;19.20;;;;;;;3.04;99.25;99586.00;6201713;23;20016;-81
2021/12/27 04:34:11;;;;;;;34.63;19.23;;;;;;;3.11;98.98;99602.59;6206733;23;20036;-81
2021/12/27 04:36:38;;;;;;;33.33;19.83;;;;;;;3.11;99.45;99602.59;6206268;23;20025;-80
2021/12/27 04:39:15;;;;;;;34.67;20.73;;;;;;;3.06;99.06;99581.50;6207492;23;20473;-80
2021/12/27 04:41:48;;;;;;;33.65;20.13;;;;;;;3.02;98.90;99568.03;6205267;23;20021;-80
2021/12/27 04:44:15;;;;;;;34.65;21.58;;;;;;;3.11;98.65;99589.69;6201598;23;20025;-81
2021/12/27 04:50:21;;;;;;;34.90;20.10;;;;;;;3.04;99.12;99571.31;6197399;23;20039;-81
2021/12/27 04:53:16;;;;;;;32.33;20.33;;;;;;;3.07;98.69;99570.22;6203882;23;20021;-81
2021/12/27 04:56:00;;;;;;;30.52;18.35;;;;;;;3.05;98.73;99561.78;6204028;23;20063;-81
2021/12/27 05:01:47;;;;;;;35.75;20.08;;;;;;;3.15;98.82;99570.38;6203701;23;20025;-80
2021/12/27 05:04:27;;;;;;;31.92;19.15;;;;;;;3.18;98.60;99585.63;6203514;23;20021;-81
2021/12/27 05:07:08;;;;;;;32.17;19.30;;;;;;;3.22;98.78;99584.41;6204621;23;20029;-80
2021/12/27 05:09:45;;;;;;;34.47;18.83;;;;;;;3.22;98.75;99585.22;6203900;23;20039;-80
2021/12/27 05:12:25;;;;;;;28.48;18.08;;;;;;;3.10;98.80;99567.38;6205064;23;20073;-81
2021/12/27 05:15:16;;;;;;;28.08;17.88;;;;;;;3.19;98.76;99569.16;6202100;23;20031;-82
2021/12/27 05:17:50;;;;;;;32.08;19.00;;;;;;;3.25;98.94;99573.78;6199546;23;20043;-81
2021/12/27 05:26:35;;;;;;;31.92;19.42;;;;;;;3.18;98.53;99557.19;6198173;23;20488;-80
2021/12/27 05:29:14;;;;;;;27.85;17.63;;;;;;;3.15;98.34;99552.28;6198094;23;20017;-80
2021/12/27 05:31:57;;;;;;;31.85;17.40;;;;;;;3.26;98.61;99567.66;6202123;23;20028;-81
2021/12/27 05:34:31;;;;;;;28.55;17.65;;;;;;;3.18;98.66;99552.84;6201668;23;20064;-81
2021/12/27 05:37:11;;;;;;;30.20;17.98;;;;;;;3.24;99.27;99565.22;6201813;23;20021;-82
2021/12/27 05:39:51;;;;;;;33.15;18.55;;;;;;;3.25;99.08;99574.59;6198486;23;20048;-81
2021/12/27 05:42:20;;;;;;;30.48;18.15;;;;;;;3.27;98.93;99564.94;6198682;23;20104;-80
2021/12/27 05:44:48;;;;;;;29.30;17.23;;;;;;;3.23;98.90;99555.84;6194174;23;20072;-79
2021/12/27 05:47:36;;;;;;;27.60;17.38;;;;;;;3.24;98.84;99541.13;6198279;23;20013;-80
2021/12/27 05:50:13;;;;;;;27.75;17.88;;;;;;;3.27;98.98;99546.84;6197700;23;20028;-80
2021/12/27 05:52:43;;;;;;;28.73;17.27;;;;;;;3.33;99.03;99556.63;6198569;23;20021;-80
2021/12/27 05:55:13;;;;;;;26.02;16.38;;;;;;;3.34;98.96;99547.91;6200409;23;20035;-82
2021/12/27 05:57:40;;;;;;;27.17;17.13;;;;;;;3.40;98.84;99556.09;6200542;23;20021;-81
2021/12/27 06:06:41;;;;;;;27.90;16.70;;;;;;;3.34;98.44;99537.56;6196860;23;20418;-80
2021/12/27 06:12:44;;;;;;;30.65;17.90;;;;;;;3.32;99.12;99536.88;6198985;23;20013;-81
2021/12/27 06:15:26;;;;;;;27.58;16.63;;;;;;;3.31;98.46;99531.84;6199796;23;20069;-81
2021/12/27 06:18:03;;;;;;;30.13;17.33;;;;;;;3.39;98.52;99555.25;6199264;23;20101;-82
2021/12/27 06:23:57;;;;;;;27.40;16.45;;;;;;;3.40;98.52;99535.41;6194609;23;20025;-82
2021/12/27 06:26:33;;;;;;;26.20;16.35;;;;;;;3.38;98.84;99532.94;6205930;23;20063;-81
2021/12/27 06:29:05;;;;;;;29.58;18.13;;;;;;;3.43;99.30;99541.13;6199730;23;20032;-81
2021/12/27 06:31:34;;;;;;;28.08;17.15;;;;;;;3.46;99.29;99540.84;6197429;23;20020;-80
2021/12/27 06:34:03;;;;;;;26.50;17.48;;;;;;;3.45;99.37;99544.38;6196414;23;20021;-80
2021/12/27 06:40:08;;;;;;;26.42;16.50;;;;;;;3.34;99.04;99531.59;6194532;23;20020;-80
2021/12/27 06:42:58;;;;;;;29.55;15.73;;;;;;;3.36;98.62;99524.50;6197620;23;20077;-79
2021/12/27 06:48:55;;;;;;;;;;;;;;;3.59;98.18;99562.06;6106745;23;20018;-79
2021/12/27 06:51:45;;;;;;;24.30;15.00;;;;;;;3.51;98.28;99554.19;6201913;23;19916;-80
2021/12/27 06:54:34;;;;;;;25.75;16.60;;;;;;;3.53;98.46;99554.88;6196525;23;20021;-80
2021/12/27 07:07:25;;;;;;;27.45;15.45;;;;;;;3.49;98.64;99543.16;6115748;23;20032;-80
2021/12/27 07:10:28;;;;;;;26.42;16.02;;;;;;;3.35;98.34;99525.47;6197558;23;20021;-82
2021/12/27 07:23:22;;;;;;;27.17;15.77;;;;;;;3.55;97.73;99534.03;6148239;23;20032;-82
2021/12/27 07:26:06;;;;;;;24.40;15.05;;;;;;;3.53;97.80;99541.94;6203474;23;20021;-81
2021/12/27 07:28:38;;;;;;;25.05;15.40;;;;;;;3.49;98.58;99537.16;6198852;23;20017;-80
2021/12/27 07:31:27;;;;;;;23.83;15.40;;;;;;;3.56;98.19;99533.91;6199146;23;20048;-82
2021/12/27 07:34:46;;;;;;;26.08;15.88;;;;;;;3.56;98.60;99531.31;6197162;23;20112;-80
2021/12/27 07:37:17;;;;;;;22.23;15.50;;;;;;;3.47;98.22;99519.19;6078523;23;20387;-78
2021/12/27 07:53:31;;;;;;;27.90;15.52;;;;;;;3.34;98.49;99526.41;6056608;23;20354;-79
2021/12/27 07:55:58;;;;;;;25.35;16.65;;;;;;;3.30;98.76;99535.41;6086793;23;20315;-78
2021/12/27 07:58:26;;;;;;;25.02;16.45;;;;;;;3.29;98.58;99533.78;6193021;23;20021;-78
2021/12/27 08:00:56;;;;;;;27.52;16.25;;;;;;;3.20;98.48;99519.91;6190016;23;20088;-80
2021/12/27 08:03:27;;;;;;;28.10;16.38;;;;;;;3.22;99.01;99523.19;6188473;23;20041;-80
2021/12/27 08:06:13;;;;;;;30.38;17.23;;;;;;;3.23;98.80;99524.81;6189864;23;20027;-79
2021/12/27 08:08:55;;;;;;;30.15;16.73;;;;;;;3.19;98.96;99523.44;6189443;23;20322;-79
2021/12/27 08:11:51;;;;;;;27.73;17.27;;;;;;;3.21;99.71;99518.13;6192666;23;20025;-79
2021/12/27 08:17:41;;;;;;;29.02;16.95;;;;;;;3.39;98.93;99524.22;6186103;23;20025;-80
2021/12/27 08:20:18;;;;;;;32.47;18.42;;;;;;;3.47;99.04;99524.38;6193411;23;20081;-80
2021/12/27 08:22:56;;;;;;;30.73;17.38;;;;;;;3.46;99.17;99516.75;6192096;23;20021;-79
2021/12/27 08:25:54;;;;;;;31.85;17.55;;;;;;;3.55;98.90;99519.31;6190884;23;20087;-80
2021/12/27 08:28:43;;;;;;;30.35;17.75;;;;;;;3.57;98.88;99519.19;6190459;23;20044;-79
2021/12/27 08:31:42;;;;;;;30.63;18.08;;;;;;;3.70;98.87;99521.50;6191552;23;20020;-80
2021/12/27 08:34:20;;;;;;;32.55;18.20;;;;;;;3.60;99.06;99493.88;6193061;23;20047;-79
2021/12/27 08:36:54;;;;;;;28.65;17.98;;;;;;;3.80;98.50;99517.91;6195590;23;20116;-79
2021/12/27 08:39:38;;;;;;;28.63;17.77;;;;;;;3.83;98.83;99519.41;6194348;23;20024;-79
2021/12/27 08:42:15;;;;;;;28.92;17.48;;;;;;;3.90;98.39;99520.47;6194900;23;20020;-78
2021/12/27 08:44:47;;;;;;;28.50;17.92;;;;;;;3.92;98.47;99508.22;6196701;23;20052;-80
2021/12/27 08:47:15;;;;;;;29.00;15.77;;;;;;;3.93;98.90;99512.44;6198040;23;20077;-79
2021/12/27 08:49:44;;;;;;;27.52;17.13;;;;;;;3.98;98.56;99503.28;6195610;23;20032;-80
2021/12/27 08:52:12;;;;;;;28.23;17.00;;;;;;;4.02;98.46;99511.59;6196378;23;20021;-79
2021/12/27 08:54:45;;;;;;;26.23;16.58;;;;;;;4.04;97.89;99503.69;6194623;23;20021;-80
2021/12/27 08:57:19;;;;;;;;;;;;;;;4.07;98.08;99508.59;6192822;23;20021;-81
2021/12/27 09:00:01;;;;;;;;;;;;;;;;;;;;;
2021/12/27 09:02:31;;;;;;;29.80;15.85;;;;;;;4.12;98.01;99485.69;6193530;23;20021;-79
2021/12/27 09:05:04;;;;;;;25.02;15.52;;;;;;;4.14;97.93;99484.56;6191400;23;20021;-77
2021/12/27 09:07:35;;;;;;;27.08;15.70;;;;;;;4.12;98.34;99477.91;6194353;23;20052;-79
2021/12/27 09:10:14;;;;;;;26.20;16.27;;;;;;;4.18;98.34;99478.16;6197963;23;20033;-79
2021/12/27 09:12:43;;;;;;;28.17;16.58;;;;;;;4.21;98.40;99475.28;6197774;23;20451;-79
2021/12/27 09:15:15;;;;;;;29.20;17.00;;;;;;;4.23;98.65;99477.72;6198324;23;20371;-80
2021/12/27 09:17:47;;;;;;;27.80;17.15;;;;;;;4.26;98.36;99483.41;6197725;23;20040;-80
2021/12/27 09:20:17;;;;;;;22.30;13.55;;;;;;;4.29;99.34;99495.25;6197993;23;20021;-81
2021/12/27 09:22:46;;;;;;;25.35;15.82;;;;;;;4.34;98.84;99493.06;6199120;23;20179;-81
2021/12/27 09:25:15;;;;;;;28.38;16.70;;;;;;;4.36;99.27;99498.09;6198494;23;20021;-80
2021/12/27 09:27:42;;;;;;;26.40;16.30;;;;;;;4.29;99.11;99482.31;6199664;23;20021;-80
2021/12/27 09:30:10;;;;;;;26.70;15.95;;;;;;;4.34;99.05;99486.09;6194838;23;20025;-81
2021/12/27 09:32:37;;;;;;;30.67;16.88;;;;;;;4.36;99.08;99485.13;6198170;23;20048;-80
2021/12/27 09:35:06;;;;;;;27.92;16.90;;;;;;;4.43;99.08;99478.44;6197298;23;20035;-80
2021/12/27 09:37:33;;;;;;;31.42;18.05;;;;;;;4.46;99.13;99481.53;6198104;23;20630;-80
2021/12/27 09:39:59;;;;;;;29.25;16.77;;;;;;;4.51;99.47;99479.34;6197942;23;20029;-80
2021/12/27 09:42:28;;;;;;;33.08;17.58;;;;;;;4.50;99.07;99479.47;6199002;23;20059;-82
2021/12/27 09:45:13;;;;;;;30.52;16.77;;;;;;;4.62;99.22;99488.69;6201556;23;20025;-82
2021/12/27 09:47:55;;;;;;;31.90;16.90;;;;;;;4.60;98.81;99485.44;6201730;23;20025;-78
2021/12/27 09:50:47;;;;;;;26.90;16.30;;;;;;;4.75;98.84;99494.31;6195201;23;20484;-79
2021/12/27 09:53:38;;;;;;;27.73;17.35;;;;;;;4.77;98.72;99491.56;6193222;23;20605;-79
2021/12/27 09:56:29;;;;;;;26.13;16.45;;;;;;;4.72;98.81;99476.50;6191451;23;20361;-79
2021/12/27 09:59:34;;;;;;;25.88;15.85;;;;;;;4.64;99.18;99455.69;6185071;23;20099;-78
2021/12/27 10:02:24;;;;;;;26.75;16.35;;;;;;;4.75;98.51;99473.56;6098045;23;20031;-79
2021/12/27 10:05:21;;;;;;;27.73;16.27;;;;;;;4.72;98.74;99463.53;6199909;23;20452;-79
2021/12/27 10:08:11;;;;;;;25.52;15.48;;;;;;;4.67;98.48;99450.19;6200213;23;20072;-79
2021/12/27 10:14:05;;;;;;;25.23;15.85;;;;;;;4.64;98.37;99440.94;6188566;23;20079;-81
2021/12/27 10:16:36;;;;;;;26.10;15.68;;;;;;;4.78;98.61;99447.38;6191386;23;20119;-80
2021/12/27 10:19:06;;;;;;;28.63;16.52;;;;;;;4.82;98.35;99445.31;6188151;23;20025;-80
2021/12/27 10:21:33;;;;;;;25.50;16.20;;;;;;;4.68;99.28;99425.91;6186095;23;20085;-79
2021/12/27 10:24:08;;;;;;;27.20;16.45;;;;;;;4.90;98.85;99460.94;6186465;23;20020;-79
2021/12/27 10:26:37;;;;;;;25.40;16.42;;;;;;;4.88;99.30;99439.53;6187266;23;20071;-80
2021/12/27 10:29:17;;;;;;;25.85;16.02;;;;;;;4.89;98.93;99439.38;6186965;23;20029;-79
2021/12/27 10:32:02;;;;;;;25.85;16.83;;;;;;;4.99;98.76;99445.31;6187989;23;20048;-79
2021/12/27 10:34:30;;;;;;;26.77;16.33;;;;;;;5.07;98.55;99443.75;6188371;23;20109;-79
2021/12/27 10:37:02;;;;;;;27.13;16.38;;;;;;;5.08;98.24;99433.22;6188712;23;20056;-79
2021/12/27 10:39:41;;;;;;;26.27;16.65;;;;;;;5.14;98.91;99448.19;6188815;23;20048;-78
2021/12/27 10:42:08;;;;;;;25.13;16.67;;;;;;;5.20;98.28;99441.59;6186529;23;20065;-80
2021/12/27 10:44:36;;;;;;;23.58;15.93;;;;;;;5.21;98.83;99433.63;6187529;23;20100;-81
2021/12/27 10:47:22;;;;;;;25.58;15.38;;;;;;;5.24;98.65;99432.53;6189715;23;20017;-80
2021/12/27 10:49:49;;;;;;;24.73;17.02;;;;;;;5.31;98.75;99425.78;6189620;23;20052;-78
2021/12/27 10:52:16;;;;;;;24.08;16.65;;;;;;;5.39;98.61;99425.81;6192015;23;20104;-80
2021/12/27 10:54:42;;;;;;;24.85;16.40;;;;;;;5.48;98.18;99427.50;6193894;23;20088;-81
2021/12/27 10:57:09;;;;;;;23.42;16.08;;;;;;;5.55;97.56;99423.34;6192394;23;20081;-77
2021/12/27 10:59:36;;;;;;;23.85;15.50;;;;;;;5.54;97.38;99434.69;6189540;23;20017;-79
2021/12/27 11:02:13;;;;;;;22.40;15.10;;;;;;;5.60;97.89;99438.47;6189789;23;20013;-81
2021/12/27 11:04:40;;;;;;;22.92;15.73;;;;;;;5.58;97.58;99425.63;6187484;23;20068;-79
2021/12/27 11:07:07;;;;;;;21.25;14.20;;;;;;;5.60;97.33;99428.06;6186422;23;20020;-81
2021/12/27 11:09:35;;;;;;;20.90;15.18;;;;;;;5.58;97.79;99419.63;6184993;23;20072;-79
2021/12/27 11:12:03;;;;;;;21.30;14.45;;;;;;;5.60;97.79;99418.50;6188708;23;20078;-78
2021/12/27 11:14:30;;;;;;;23.30;14.95;;;;;;;5.65;97.99;99420.66;6188192;23;20028;-79
2021/12/27 11:16:56;;;;;;;23.20;15.63;;;;;;;5.62;97.59;99411.38;6186756;23;20481;-78
2021/12/27 11:19:24;;;;;;;23.05;15.75;;;;;;;5.65;97.85;99405.88;6190088;23;20056;-82
2021/12/27 11:21:51;;;;;;;24.45;16.23;;;;;;;5.70;97.52;99420.16;6191426;23;20048;-82
2021/12/27 11:24:19;;;;;;;22.63;15.35;;;;;;;5.75;97.34;99400.56;6190709;23;20034;-81
2021/12/27 11:26:46;;;;;;;23.77;16.42;;;;;;;5.90;97.49;99398.22;6190826;23;20017;-83
2021/12/27 11:29:16;;;;;;;23.73;16.80;;;;;;;6.00;97.63;99401.53;6193301;23;20331;-82
2021/12/27 11:31:44;;;;;;;20.38;15.45;;;;;;;6.03;97.06;99392.63;6194995;23;20021;-82
2021/12/27 11:34:14;;;;;;;19.23;14.88;;;;;;;6.14;96.75;99394.94;6196350;23;20024;-82
2021/12/27 11:36:44;;;;;;;20.10;14.07;;;;;;;6.19;96.42;99385.66;6196921;23;20021;-82
2021/12/27 11:39:30;;;;;;;17.00;12.75;;;;;;;6.30;96.11;99390.56;6196926;23;20024;-82
2021/12/27 11:41:59;;;;;;;19.40;12.93;;;;;;;6.37;96.26;99380.34;6195303;23;20024;-83
2021/12/27 11:44:35;;;;;;;17.48;12.43;;;;;;;6.31;95.85;99371.41;6195599;23;20021;-82
2021/12/27 11:47:02;;;;;;;18.60;13.20;;;;;;;6.32;96.26;99373.03;6195591;23;20049;-82
2021/12/27 11:49:48;;;;;;;20.00;13.20;;;;;;;6.32;96.04;99360.06;6195098;23;20036;-82
2021/12/27 11:52:25;;;;;;;20.70;12.40;;;;;;;6.46;96.12;99368.19;6196075;23;20040;-82
2021/12/27 11:54:56;;;;;;;18.27;12.40;;;;;;;6.43;96.00;99365.91;6194618;23;20021;-83
2021/12/27 11:57:50;;;;;;;16.35;12.50;;;;;;;6.46;95.78;99356.03;6194542;23;20048;-82
2021/12/27 12:00:37;;;;;;;17.95;12.20;;;;;;;6.48;96.01;99355.84;6195745;23;20036;-85
2021/12/27 12:03:20;;;;;;;15.88;12.07;;;;;;;6.56;95.48;99351.50;6197353;23;20025;-82
2021/12/27 12:05:48;;;;;;;15.13;11.68;;;;;;;6.50;95.29;99344.34;6196730;23;20052;-81
2021/12/27 12:08:18;;;;;;;16.58;10.95;;;;;;;6.56;95.19;99343.69;6191717;23;20017;-80
2021/12/27 12:10:57;;;;;;;15.63;10.68;;;;;;;6.56;94.67;99328.09;6193815;23;20080;-81
2021/12/27 12:13:26;;;;;;;13.60;10.15;;;;;;;6.55;94.54;99323.06;6193202;23;20048;-81
2021/12/27 12:15:57;;;;;;;13.40;10.20;;;;;;;6.57;95.05;99326.31;6193505;23;20044;-81
2021/12/27 12:18:23;;;;;;;13.25;10.77;;;;;;;6.59;95.07;99324.38;6191736;23;20029;-79
2021/12/27 12:20:50;;;;;;;14.70;10.93;;;;;;;6.58;94.49;99314.94;6191762;23;20053;-80
2021/12/27 12:23:18;;;;;;;14.27;11.18;;;;;;;6.62;95.06;99324.00;6188850;23;20526;-82
2021/12/27 12:25:45;;;;;;;14.77;10.65;;;;;;;6.60;94.62;99313.00;6194531;23;20027;-81
2021/12/27 12:28:14;;;;;;;14.63;10.88;;;;;;;6.60;94.63;99323.38;6191385;23;20040;-81
2021/12/27 12:30:43;;;;;;;12.98;10.68;;;;;;;6.58;94.83;99320.13;6190087;23;20487;-79
2021/12/27 12:33:13;;;;;;;14.93;11.93;;;;;;;6.57;94.72;99319.31;6191869;23;20044;-81
2021/12/27 12:35:42;;;;;;;16.88;12.77;;;;;;;6.57;94.91;99314.13;6191690;23;20063;-81
2021/12/27 12:38:21;;;;;;;17.33;12.57;;;;;;;6.62;94.76;99316.22;6192582;23;20056;-80
2021/12/27 12:41:01;;;;;;;17.23;11.90;;;;;;;6.67;94.72;99319.13;6190938;23;20543;-79
2021/12/27 12:43:36;;;;;;;13.60;11.18;;;;;;;6.75;94.98;99321.75;6188835;23;20052;-80
2021/12/27 12:46:15;;;;;;;15.15;11.18;;;;;;;6.75;94.71;99311.34;6189213;23;20044;-82
2021/12/27 12:48:42;;;;;;;14.50;11.00;;;;;;;6.76;94.94;99322.56;6189596;23;20056;-80
2021/12/27 12:51:08;;;;;;;12.20;9.90;;;;;;;6.77;95.24;99321.56;6189575;23;20100;-80
2021/12/27 12:53:36;;;;;;;14.00;11.10;;;;;;;6.77;95.31;99312.00;6189252;23;20060;-80
2021/12/27 12:56:04;;;;;;;14.52;9.57;;;;;;;6.85;94.78;99319.78;6189332;23;20020;-80
2021/12/27 12:58:35;;;;;;;11.40;9.63;;;;;;;6.86;94.96;99316.22;6189587;23;20056;-81
2021/12/27 13:01:05;;;;;;;12.20;9.70;;;;;;;6.90;95.08;99319.31;6189880;23;20048;-80
2021/12/27 13:03:32;;;;;;;13.50;10.00;;;;;;;6.92;95.16;99320.75;6189251;23;20080;-80
2021/12/27 13:05:59;;;;;;;14.75;10.13;;;;;;;6.94;94.59;99320.59;6186426;23;20067;-79
2021/12/27 13:08:27;;;;;;;14.55;10.45;;;;;;;6.96;94.86;99316.84;6186237;23;20097;-80
2021/12/27 13:10:58;;;;;;;13.32;10.43;;;;;;;6.97;94.65;99321.09;6185396;23;20025;-80
2021/12/27 13:13:25;;;;;;;12.95;9.98;;;;;;;6.99;94.99;99319.13;6185106;23;20029;-79